Bookmark and Share
Track history (hours):
 

Alwadi Algadeed

Last reported at 2013-Jan-09 22:24 UTC. Time now 2014-Apr-24 04:09 UTC.
Position N 46°35' E 031°27'.
Warning: this ship's position is years out of date!

Length 164 m; draft 6.4 m.

Type: Cargo ship. MMSI: 622121411.

NotesDate/timePositionNaut miles runAvg speedWind from/ knotsBaromVisibWave heightAir tempDewpointWater temp
2013-Jan-09 22:24N 46°35' E 031°27'7 8.9
2013-Jan-09 21:33N 46°36' E 031°38'10 9.9
2013-Jan-09 20:33N 46°37' E 031°52'7 7.3
2013-Jan-09 19:34N 46°44' E 031°56'2 2.2
2013-Jan-09 18:32N 46°46' E 031°57'0 0.0
2013-Jan-09 17:32N 46°46' E 031°57'0 0.0
2013-Jan-09 16:32N 46°46' E 031°57'0 0.0
2013-Jan-09 15:32N 46°46' E 031°57'0 0.0
2013-Jan-09 14:32N 46°46' E 031°57'0 0.0
2013-Jan-09 13:31N 46°46' E 031°57'0 0.0
2013-Jan-09 12:31N 46°46' E 031°57'0 0.0
2013-Jan-09 11:34N 46°46' E 031°57'0 0.0
2013-Jan-09 10:31N 46°46' E 031°57'0 0.0
2013-Jan-09 09:31N 46°46' E 031°57'0 0.0
2013-Jan-09 08:31N 46°46' E 031°57'0 0.0
2013-Jan-09 06:25N 46°46' E 031°57'0 0.0
2013-Jan-09 05:49N 46°46' E 031°57'0 0.0
2013-Jan-09 04:31N 46°46' E 031°57'0 0.0
2013-Jan-09 03:31N 46°46' E 031°57'0 0.0
2013-Jan-09 02:31N 46°46' E 031°57'0 0.0
2013-Jan-09 01:31N 46°46' E 031°57'0 0.0
2013-Jan-09 00:33N 46°46' E 031°57'0 0.0
2013-Jan-08 23:33N 46°46' E 031°57'0 0.0
2013-Jan-08 22:33N 46°46' E 031°57'0 0.0
2013-Jan-08 21:33N 46°46' E 031°57'0 0.0
2013-Jan-08 20:33N 46°46' E 031°57'0 0.0
2013-Jan-08 19:33N 46°46' E 031°57'0 0.0
2013-Jan-08 18:33N 46°46' E 031°57'0 0.0
2013-Jan-08 17:33N 46°46' E 031°57'0 0.0
2013-Jan-08 16:33N 46°46' E 031°57'0 0.0
2013-Jan-08 15:33N 46°46' E 031°57'0 0.0
2013-Jan-08 14:34N 46°46' E 031°57'0 0.0
2013-Jan-08 13:33N 46°46' E 031°57'0 0.0
2013-Jan-08 12:33N 46°46' E 031°57'0 0.0
2013-Jan-08 11:38N 46°46' E 031°57'0 0.0
2013-Jan-08 10:34N 46°46' E 031°57'0 0.1
2013-Jan-08 09:33N 46°46' E 031°57'2 2.3
2013-Jan-08 08:33N 46°44' E 031°56'6 6.2
2013-Jan-08 07:33N 46°38' E 031°54'8 7.6
2013-Jan-08 06:34N 46°36' E 031°43'8 8.2
2013-Jan-08 05:36N 46°34' E 031°32'  
2013-Jan-04 08:30N 37°47' E 025°45'1210.6
2013-Jan-04 07:23N 37°35' E 025°48'810.2
2013-Jan-04 06:34N 37°27' E 025°51'1010.2
2013-Jan-04 05:36N 37°19' E 025°58'1110.2
2013-Jan-04 04:33N 37°10' E 026°04'1111.0
2013-Jan-04 03:33N 36°60' E 026°10'1110.8
2013-Jan-04 02:33N 36°52' E 026°19'1110.8
2013-Jan-04 01:33N 36°44' E 026°29'1111.0
2013-Jan-04 00:33N 36°35' E 026°37'  

Dump ship's entire track history

sailing weather and tide predictions

Alwadi Algadeed — SUCD — position and weather